sensor_id;sensor_type;location;lat;lon;timestamp;temperature;humidity
42965;DHT22;28604;51.204;22.552;2022-11-10T00:02:17;8.20;90.10
42965;DHT22;28604;51.204;22.552;2022-11-10T00:05:01;8.20;90.60
42965;DHT22;28604;51.204;22.552;2022-11-10T00:07:46;8.20;90.10
42965;DHT22;28604;51.204;22.552;2022-11-10T00:10:30;8.20;90.50
42965;DHT22;28604;51.204;22.552;2022-11-10T00:13:15;8.20;90.30
42965;DHT22;28604;51.204;22.552;2022-11-10T00:16:04;8.30;90.10
42965;DHT22;28604;51.204;22.552;2022-11-10T00:22:03;8.20;90.30
42965;DHT22;28604;51.204;22.552;2022-11-10T00:24:48;8.10;89.90
42965;DHT22;28604;51.204;22.552;2022-11-10T00:27:33;8.00;91.10
42965;DHT22;28604;51.204;22.552;2022-11-10T00:30:18;8.00;90.40
42965;DHT22;28604;51.204;22.552;2022-11-10T00:33:02;8.00;90.10
42965;DHT22;28604;51.204;22.552;2022-11-10T00:35:46;8.00;90.10
42965;DHT22;28604;51.204;22.552;2022-11-10T00:38:31;7.90;90.50
42965;DHT22;28604;51.204;22.552;2022-11-10T00:41:15;7.90;90.30
42965;DHT22;28604;51.204;22.552;2022-11-10T00:44:00;7.90;90.50
42965;DHT22;28604;51.204;22.552;2022-11-10T00:46:44;7.90;90.70
42965;DHT22;28604;51.204;22.552;2022-11-10T00:49:29;7.90;90.30
42965;DHT22;28604;51.204;22.552;2022-11-10T00:52:14;7.80;91.20
42965;DHT22;28604;51.204;22.552;2022-11-10T00:54:58;7.90;90.90
42965;DHT22;28604;51.204;22.552;2022-11-10T00:57:42;7.90;90.90
42965;DHT22;28604;51.204;22.552;2022-11-10T01:00:26;7.80;91.50
42965;DHT22;28604;51.204;22.552;2022-11-10T01:03:15;7.80;90.90
42965;DHT22;28604;51.204;22.552;2022-11-10T01:06:05;7.80;91.10
42965;DHT22;28604;51.204;22.552;2022-11-10T01:08:50;7.80;90.80
42965;DHT22;28604;51.204;22.552;2022-11-10T01:11:34;7.80;91.30
42965;DHT22;28604;51.204;22.552;2022-11-10T01:14:19;7.90;91.20
42965;DHT22;28604;51.204;22.552;2022-11-10T01:17:03;7.90;91.80
42965;DHT22;28604;51.204;22.552;2022-11-10T01:19:47;8.00;91.30
42965;DHT22;28604;51.204;22.552;2022-11-10T01:22:32;8.00;91.90
42965;DHT22;28604;51.204;22.552;2022-11-10T01:25:16;8.00;91.60
42965;DHT22;28604;51.204;22.552;2022-11-10T01:28:00;8.00;91.50
42965;DHT22;28604;51.204;22.552;2022-11-10T01:30:45;8.00;91.30
42965;DHT22;28604;51.204;22.552;2022-11-10T01:33:30;8.00;91.60
42965;DHT22;28604;51.204;22.552;2022-11-10T01:36:15;8.00;91.40
42965;DHT22;28604;51.204;22.552;2022-11-10T01:39:00;8.00;91.40
42965;DHT22;28604;51.204;22.552;2022-11-10T01:41:44;7.90;91.70
42965;DHT22;28604;51.204;22.552;2022-11-10T01:44:28;7.90;91.30
42965;DHT22;28604;51.204;22.552;2022-11-10T01:47:13;8.00;91.30
42965;DHT22;28604;51.204;22.552;2022-11-10T01:49:57;7.90;90.50
42965;DHT22;28604;51.204;22.552;2022-11-10T01:52:47;7.90;91.30
42965;DHT22;28604;51.204;22.552;2022-11-10T01:55:35;7.90;91.30
42965;DHT22;28604;51.204;22.552;2022-11-10T01:58:27;8.00;91.10
42965;DHT22;28604;51.204;22.552;2022-11-10T02:01:11;7.90;91.20
42965;DHT22;28604;51.204;22.552;2022-11-10T02:04:00;7.90;91.70
42965;DHT22;28604;51.204;22.552;2022-11-10T02:06:46;7.90;91.50
42965;DHT22;28604;51.204;22.552;2022-11-10T02:09:31;7.90;91.40
42965;DHT22;28604;51.204;22.552;2022-11-10T02:12:15;7.90;91.30
42965;DHT22;28604;51.204;22.552;2022-11-10T02:15:20;7.90;90.80
42965;DHT22;28604;51.204;22.552;2022-11-10T02:18:04;7.90;91.00
42965;DHT22;28604;51.204;22.552;2022-11-10T02:20:49;7.90;91.40
42965;DHT22;28604;51.204;22.552;2022-11-10T02:26:26;7.90;90.30
42965;DHT22;28604;51.204;22.552;2022-11-10T02:29:12;7.90;90.70
42965;DHT22;28604;51.204;22.552;2022-11-10T02:31:56;7.80;91.20
42965;DHT22;28604;51.204;22.552;2022-11-10T02:34:41;7.80;90.70
42965;DHT22;28604;51.204;22.552;2022-11-10T02:37:26;7.80;90.90
42965;DHT22;28604;51.204;22.552;2022-11-10T02:40:10;7.70;91.00
42965;DHT22;28604;51.204;22.552;2022-11-10T02:42:55;7.70;90.90
42965;DHT22;28604;51.204;22.552;2022-11-10T02:45:39;7.80;90.50
42965;DHT22;28604;51.204;22.552;2022-11-10T02:48:30;7.80;90.60
42965;DHT22;28604;51.204;22.552;2022-11-10T02:51:15;7.70;90.70
42965;DHT22;28604;51.204;22.552;2022-11-10T02:53:59;7.70;90.80
42965;DHT22;28604;51.204;22.552;2022-11-10T02:56:43;7.60;91.30
42965;DHT22;28604;51.204;22.552;2022-11-10T02:59:28;7.60;91.30
42965;DHT22;28604;51.204;22.552;2022-11-10T03:02:12;7.60;91.50
42965;DHT22;28604;51.204;22.552;2022-11-10T03:04:57;7.50;91.30
42965;DHT22;28604;51.204;22.552;2022-11-10T03:07:41;7.60;91.90
42965;DHT22;28604;51.204;22.552;2022-11-10T03:10:26;7.60;91.90
42965;DHT22;28604;51.204;22.552;2022-11-10T03:13:11;7.60;92.00
42965;DHT22;28604;51.204;22.552;2022-11-10T03:15:55;7.60;92.10
42965;DHT22;28604;51.204;22.552;2022-11-10T03:18:40;7.60;92.10
42965;DHT22;28604;51.204;22.552;2022-11-10T03:21:24;7.60;91.70
42965;DHT22;28604;51.204;22.552;2022-11-10T03:24:08;7.60;92.30
42965;DHT22;28604;51.204;22.552;2022-11-10T03:26:53;7.50;91.90
42965;DHT22;28604;51.204;22.552;2022-11-10T03:29:37;7.60;92.30
42965;DHT22;28604;51.204;22.552;2022-11-10T03:32:22;7.60;92.00
42965;DHT22;28604;51.204;22.552;2022-11-10T03:35:07;7.60;92.20
42965;DHT22;28604;51.204;22.552;2022-11-10T03:37:52;7.60;92.10
42965;DHT22;28604;51.204;22.552;2022-11-10T03:40:36;7.60;91.50
42965;DHT22;28604;51.204;22.552;2022-11-10T03:43:21;7.70;91.80
42965;DHT22;28604;51.204;22.552;2022-11-10T03:46:05;7.70;91.70
42965;DHT22;28604;51.204;22.552;2022-11-10T03:48:50;7.70;91.70
42965;DHT22;28604;51.204;22.552;2022-11-10T03:51:35;7.70;91.70
42965;DHT22;28604;51.204;22.552;2022-11-10T03:54:19;7.70;91.70
42965;DHT22;28604;51.204;22.552;2022-11-10T03:57:03;7.70;91.40
42965;DHT22;28604;51.204;22.552;2022-11-10T03:59:48;7.70;91.20
42965;DHT22;28604;51.204;22.552;2022-11-10T04:02:32;7.70;91.00
42965;DHT22;28604;51.204;22.552;2022-11-10T04:05:17;7.70;91.00
42965;DHT22;28604;51.204;22.552;2022-11-10T04:08:20;7.60;91.20
42965;DHT22;28604;51.204;22.552;2022-11-10T04:11:24;7.50;91.20
42965;DHT22;28604;51.204;22.552;2022-11-10T04:14:27;7.50;90.90
42965;DHT22;28604;51.204;22.552;2022-11-10T04:17:31;7.50;91.20
42965;DHT22;28604;51.204;22.552;2022-11-10T04:20:16;7.50;91.30
42965;DHT22;28604;51.204;22.552;2022-11-10T04:23:00;7.40;91.20
42965;DHT22;28604;51.204;22.552;2022-11-10T04:26:08;7.40;91.30
42965;DHT22;28604;51.204;22.552;2022-11-10T04:29:12;7.40;91.20
42965;DHT22;28604;51.204;22.552;2022-11-10T04:31:57;7.40;91.30
42965;DHT22;28604;51.204;22.552;2022-11-10T04:34:41;7.30;91.50
42965;DHT22;28604;51.204;22.552;2022-11-10T04:37:25;7.30;91.60
42965;DHT22;28604;51.204;22.552;2022-11-10T04:40:10;7.30;91.40
42965;DHT22;28604;51.204;22.552;2022-11-10T04:42:54;7.20;91.60
42965;DHT22;28604;51.204;22.552;2022-11-10T04:45:39;7.20;91.40
42965;DHT22;28604;51.204;22.552;2022-11-10T04:48:24;7.20;91.40
42965;DHT22;28604;51.204;22.552;2022-11-10T04:51:09;7.20;91.30
42965;DHT22;28604;51.204;22.552;2022-11-10T04:53:54;7.10;91.20
42965;DHT22;28604;51.204;22.552;2022-11-10T04:56:39;7.10;91.40
42965;DHT22;28604;51.204;22.552;2022-11-10T04:59:23;7.10;91.40
42965;DHT22;28604;51.204;22.552;2022-11-10T05:02:08;7.10;91.60
42965;DHT22;28604;51.204;22.552;2022-11-10T05:04:52;7.10;91.30
42965;DHT22;28604;51.204;22.552;2022-11-10T05:07:37;7.10;91.60
42965;DHT22;28604;51.204;22.552;2022-11-10T05:10:22;7.00;91.40
42965;DHT22;28604;51.204;22.552;2022-11-10T05:13:07;7.00;91.10
42965;DHT22;28604;51.204;22.552;2022-11-10T05:18:49;7.00;91.50
42965;DHT22;28604;51.204;22.552;2022-11-10T05:21:37;7.00;91.40
42965;DHT22;28604;51.204;22.552;2022-11-10T05:24:22;7.00;91.40
42965;DHT22;28604;51.204;22.552;2022-11-10T05:27:06;6.90;91.80
42965;DHT22;28604;51.204;22.552;2022-11-10T05:29:54;6.90;91.60
42965;DHT22;28604;51.204;22.552;2022-11-10T05:32:38;7.00;91.70
42965;DHT22;28604;51.204;22.552;2022-11-10T05:35:23;6.90;91.60
42965;DHT22;28604;51.204;22.552;2022-11-10T05:38:07;7.00;91.70
42965;DHT22;28604;51.204;22.552;2022-11-10T05:40:52;6.90;91.70
42965;DHT22;28604;51.204;22.552;2022-11-10T05:43:36;7.00;92.10
42965;DHT22;28604;51.204;22.552;2022-11-10T05:46:21;7.00;91.50
42965;DHT22;28604;51.204;22.552;2022-11-10T05:49:05;6.90;91.80
42965;DHT22;28604;51.204;22.552;2022-11-10T05:51:50;6.90;91.50
42965;DHT22;28604;51.204;22.552;2022-11-10T05:54:34;6.90;92.10
42965;DHT22;28604;51.204;22.552;2022-11-10T05:57:18;6.90;91.70
42965;DHT22;28604;51.204;22.552;2022-11-10T06:00:04;7.00;92.00
42965;DHT22;28604;51.204;22.552;2022-11-10T06:03:00;7.00;92.10
42965;DHT22;28604;51.204;22.552;2022-11-10T06:05:45;7.00;92.30
42965;DHT22;28604;51.204;22.552;2022-11-10T06:08:29;7.10;92.00
42965;DHT22;28604;51.204;22.552;2022-11-10T06:11:13;7.10;92.60
42965;DHT22;28604;51.204;22.552;2022-11-10T06:13:58;7.10;92.40
42965;DHT22;28604;51.204;22.552;2022-11-10T06:16:44;7.10;92.10
42965;DHT22;28604;51.204;22.552;2022-11-10T06:19:28;7.10;92.10
42965;DHT22;28604;51.204;22.552;2022-11-10T06:22:13;7.20;92.10
42965;DHT22;28604;51.204;22.552;2022-11-10T06:24:58;7.20;92.00
42965;DHT22;28604;51.204;22.552;2022-11-10T06:27:43;7.30;91.90
42965;DHT22;28604;51.204;22.552;2022-11-10T06:30:29;7.30;92.20
42965;DHT22;28604;51.204;22.552;2022-11-10T06:33:13;7.40;91.90
42965;DHT22;28604;51.204;22.552;2022-11-10T06:35:57;7.40;91.90
42965;DHT22;28604;51.204;22.552;2022-11-10T06:38:43;7.50;92.00
42965;DHT22;28604;51.204;22.552;2022-11-10T06:41:27;7.60;92.00
42965;DHT22;28604;51.204;22.552;2022-11-10T06:44:12;7.70;92.00
42965;DHT22;28604;51.204;22.552;2022-11-10T06:46:57;7.70;91.80
42965;DHT22;28604;51.204;22.552;2022-11-10T06:49:41;7.80;91.70
42965;DHT22;28604;51.204;22.552;2022-11-10T06:52:25;7.80;92.00
42965;DHT22;28604;51.204;22.552;2022-11-10T06:55:09;7.80;91.80
42965;DHT22;28604;51.204;22.552;2022-11-10T06:57:55;7.90;91.80
42965;DHT22;28604;51.204;22.552;2022-11-10T07:00:39;8.00;91.70
42965;DHT22;28604;51.204;22.552;2022-11-10T07:03:23;8.00;91.60
42965;DHT22;28604;51.204;22.552;2022-11-10T07:06:07;8.00;91.50
42965;DHT22;28604;51.204;22.552;2022-11-10T07:08:52;8.10;91.50
42965;DHT22;28604;51.204;22.552;2022-11-10T07:11:36;8.10;91.60
42965;DHT22;28604;51.204;22.552;2022-11-10T07:14:21;8.10;91.70
42965;DHT22;28604;51.204;22.552;2022-11-10T07:17:05;8.10;91.70
42965;DHT22;28604;51.204;22.552;2022-11-10T07:19:50;8.10;91.70
42965;DHT22;28604;51.204;22.552;2022-11-10T07:22:34;8.00;91.80
42965;DHT22;28604;51.204;22.552;2022-11-10T07:25:19;8.10;91.80
42965;DHT22;28604;51.204;22.552;2022-11-10T07:28:06;8.10;91.70
42965;DHT22;28604;51.204;22.552;2022-11-10T07:30:51;8.20;91.70
42965;DHT22;28604;51.204;22.552;2022-11-10T07:33:35;8.30;91.70
42965;DHT22;28604;51.204;22.552;2022-11-10T07:36:20;8.30;91.70
42965;DHT22;28604;51.204;22.552;2022-11-10T07:39:04;8.30;91.80
42965;DHT22;28604;51.204;22.552;2022-11-10T07:41:49;8.30;91.90
42965;DHT22;28604;51.204;22.552;2022-11-10T07:44:33;8.40;91.90
42965;DHT22;28604;51.204;22.552;2022-11-10T07:47:18;8.30;92.00
42965;DHT22;28604;51.204;22.552;2022-11-10T07:50:02;8.40;92.00
42965;DHT22;28604;51.204;22.552;2022-11-10T07:52:47;8.40;92.10
42965;DHT22;28604;51.204;22.552;2022-11-10T07:55:32;8.50;91.90
42965;DHT22;28604;51.204;22.552;2022-11-10T07:58:17;8.50;91.90
42965;DHT22;28604;51.204;22.552;2022-11-10T08:01:02;8.50;91.90
42965;DHT22;28604;51.204;22.552;2022-11-10T08:03:46;8.50;91.80
42965;DHT22;28604;51.204;22.552;2022-11-10T08:06:31;8.50;91.80
42965;DHT22;28604;51.204;22.552;2022-11-10T08:09:16;8.60;91.80
42965;DHT22;28604;51.204;22.552;2022-11-10T08:12:00;8.60;91.90
42965;DHT22;28604;51.204;22.552;2022-11-10T08:14:45;8.60;91.90
42965;DHT22;28604;51.204;22.552;2022-11-10T08:17:29;8.70;91.80
42965;DHT22;28604;51.204;22.552;2022-11-10T08:20:13;8.70;91.60
42965;DHT22;28604;51.204;22.552;2022-11-10T08:22:59;8.80;91.60
42965;DHT22;28604;51.204;22.552;2022-11-10T08:25:44;8.80;91.60
42965;DHT22;28604;51.204;22.552;2022-11-10T08:28:31;8.80;91.60
42965;DHT22;28604;51.204;22.552;2022-11-10T08:31:16;8.90;91.50
42965;DHT22;28604;51.204;22.552;2022-11-10T08:34:00;8.90;91.50
42965;DHT22;28604;51.204;22.552;2022-11-10T08:36:45;8.90;91.60
42965;DHT22;28604;51.204;22.552;2022-11-10T08:39:29;8.90;91.70
42965;DHT22;28604;51.204;22.552;2022-11-10T08:42:13;8.90;91.90
42965;DHT22;28604;51.204;22.552;2022-11-10T08:44:58;8.90;92.00
42965;DHT22;28604;51.204;22.552;2022-11-10T08:47:42;8.90;92.20
42965;DHT22;28604;51.204;22.552;2022-11-10T08:50:28;8.90;92.40
42965;DHT22;28604;51.204;22.552;2022-11-10T08:53:14;8.90;92.60
42965;DHT22;28604;51.204;22.552;2022-11-10T08:55:59;8.90;92.60
42965;DHT22;28604;51.204;22.552;2022-11-10T08:58:44;9.00;92.80
42965;DHT22;28604;51.204;22.552;2022-11-10T09:01:28;9.00;92.70
42965;DHT22;28604;51.204;22.552;2022-11-10T09:04:13;9.00;92.80
42965;DHT22;28604;51.204;22.552;2022-11-10T09:06:58;9.00;92.80
42965;DHT22;28604;51.204;22.552;2022-11-10T09:09:43;9.00;92.80
42965;DHT22;28604;51.204;22.552;2022-11-10T09:12:27;9.00;93.00
42965;DHT22;28604;51.204;22.552;2022-11-10T09:15:12;9.00;93.00
42965;DHT22;28604;51.204;22.552;2022-11-10T09:18:01;9.00;93.10
42965;DHT22;28604;51.204;22.552;2022-11-10T09:20:46;9.00;93.00
42965;DHT22;28604;51.204;22.552;2022-11-10T09:23:30;8.90;93.20
42965;DHT22;28604;51.204;22.552;2022-11-10T09:26:14;9.00;93.10
42965;DHT22;28604;51.204;22.552;2022-11-10T09:28:58;9.00;93.20
42965;DHT22;28604;51.204;22.552;2022-11-10T09:31:43;9.10;93.00
42965;DHT22;28604;51.204;22.552;2022-11-10T09:34:28;9.10;93.00
42965;DHT22;28604;51.204;22.552;2022-11-10T09:37:13;9.10;93.30
42965;DHT22;28604;51.204;22.552;2022-11-10T09:39:57;9.10;93.10
42965;DHT22;28604;51.204;22.552;2022-11-10T09:42:42;9.10;93.50
42965;DHT22;28604;51.204;22.552;2022-11-10T09:45:36;9.10;93.60
42965;DHT22;28604;51.204;22.552;2022-11-10T09:48:41;9.20;93.60
42965;DHT22;28604;51.204;22.552;2022-11-10T09:51:33;9.20;93.60
42965;DHT22;28604;51.204;22.552;2022-11-10T09:54:40;9.20;93.50
42965;DHT22;28604;51.204;22.552;2022-11-10T09:57:26;9.30;93.70
42965;DHT22;28604;51.204;22.552;2022-11-10T10:00:15;9.30;93.50
42965;DHT22;28604;51.204;22.552;2022-11-10T10:03:04;9.30;93.90
42965;DHT22;28604;51.204;22.552;2022-11-10T10:08:44;9.30;93.80
42965;DHT22;28604;51.204;22.552;2022-11-10T10:14:38;9.40;94.00
42965;DHT22;28604;51.204;22.552;2022-11-10T10:17:40;9.40;94.10
42965;DHT22;28604;51.204;22.552;2022-11-10T10:21:00;9.50;94.20
42965;DHT22;28604;51.204;22.552;2022-11-10T10:23:50;9.50;94.20
42965;DHT22;28604;51.204;22.552;2022-11-10T10:26:38;9.50;94.20
42965;DHT22;28604;51.204;22.552;2022-11-10T10:29:38;9.60;94.30
42965;DHT22;28604;51.204;22.552;2022-11-10T10:32:25;9.70;94.30
42965;DHT22;28604;51.204;22.552;2022-11-10T10:35:15;9.70;94.20
42965;DHT22;28604;51.204;22.552;2022-11-10T10:38:00;9.80;94.30
42965;DHT22;28604;51.204;22.552;2022-11-10T10:40:48;9.80;94.40
42965;DHT22;28604;51.204;22.552;2022-11-10T10:43:33;9.80;94.20
42965;DHT22;28604;51.204;22.552;2022-11-10T10:46:18;9.90;94.10
42965;DHT22;28604;51.204;22.552;2022-11-10T10:49:20;9.90;94.30
42965;DHT22;28604;51.204;22.552;2022-11-10T10:52:11;9.90;94.50
42965;DHT22;28604;51.204;22.552;2022-11-10T10:55:12;9.90;94.50
42965;DHT22;28604;51.204;22.552;2022-11-10T10:58:00;9.90;94.30
42965;DHT22;28604;51.204;22.552;2022-11-10T11:03:49;10.00;94.30
42965;DHT22;28604;51.204;22.552;2022-11-10T11:06:34;10.10;94.10
42965;DHT22;28604;51.204;22.552;2022-11-10T11:09:28;10.10;94.20
42965;DHT22;28604;51.204;22.552;2022-11-10T11:12:32;10.20;94.30
42965;DHT22;28604;51.204;22.552;2022-11-10T11:15:26;10.20;94.30
42965;DHT22;28604;51.204;22.552;2022-11-10T11:18:16;10.20;94.40
42965;DHT22;28604;51.204;22.552;2022-11-10T11:21:36;10.20;94.30
42965;DHT22;28604;51.204;22.552;2022-11-10T11:24:45;10.30;94.10
42965;DHT22;28604;51.204;22.552;2022-11-10T11:27:47;10.30;94.50
42965;DHT22;28604;51.204;22.552;2022-11-10T11:30:46;10.40;94.80
42965;DHT22;28604;51.204;22.552;2022-11-10T11:45:35;10.60;94.20
42965;DHT22;28604;51.204;22.552;2022-11-10T11:48:39;10.60;94.40
42965;DHT22;28604;51.204;22.552;2022-11-10T11:51:35;10.60;94.40
42965;DHT22;28604;51.204;22.552;2022-11-10T11:54:44;10.60;94.50
42965;DHT22;28604;51.204;22.552;2022-11-10T12:13:03;10.90;94.60
42965;DHT22;28604;51.204;22.552;2022-11-10T12:18:45;10.90;94.40
42965;DHT22;28604;51.204;22.552;2022-11-10T12:21:42;10.80;94.40
42965;DHT22;28604;51.204;22.552;2022-11-10T12:27:27;10.90;94.30
42965;DHT22;28604;51.204;22.552;2022-11-10T12:30:15;10.90;94.30
42965;DHT22;28604;51.204;22.552;2022-11-10T12:33:18;10.90;94.40
42965;DHT22;28604;51.204;22.552;2022-11-10T12:36:11;10.90;94.30
42965;DHT22;28604;51.204;22.552;2022-11-10T12:42:02;11.00;94.00
42965;DHT22;28604;51.204;22.552;2022-11-10T12:44:56;10.90;94.10
42965;DHT22;28604;51.204;22.552;2022-11-10T12:47:44;11.00;94.00
42965;DHT22;28604;51.204;22.552;2022-11-10T12:53:35;10.90;94.10
42965;DHT22;28604;51.204;22.552;2022-11-10T12:56:35;11.00;94.10
42965;DHT22;28604;51.204;22.552;2022-11-10T13:08:34;10.90;94.10
42965;DHT22;28604;51.204;22.552;2022-11-10T13:11:24;10.90;94.20
42965;DHT22;28604;51.204;22.552;2022-11-10T13:14:23;11.00;94.10
42965;DHT22;28604;51.204;22.552;2022-11-10T13:26:10;10.90;94.40
42965;DHT22;28604;51.204;22.552;2022-11-10T13:28:57;10.90;94.40
42965;DHT22;28604;51.204;22.552;2022-11-10T13:31:49;11.00;94.30
42965;DHT22;28604;51.204;22.552;2022-11-10T13:34:45;11.00;94.20
42965;DHT22;28604;51.204;22.552;2022-11-10T13:46:02;11.00;94.20
42965;DHT22;28604;51.204;22.552;2022-11-10T13:52:20;11.10;94.30
42965;DHT22;28604;51.204;22.552;2022-11-10T13:55:39;11.00;94.30
42965;DHT22;28604;51.204;22.552;2022-11-10T13:58:32;11.00;94.30
42965;DHT22;28604;51.204;22.552;2022-11-10T14:04:04;11.10;94.20
42965;DHT22;28604;51.204;22.552;2022-11-10T14:06:51;11.00;94.30
42965;DHT22;28604;51.204;22.552;2022-11-10T14:09:43;11.00;94.10
42965;DHT22;28604;51.204;22.552;2022-11-10T14:15:22;11.10;94.00
42965;DHT22;28604;51.204;22.552;2022-11-10T14:18:25;11.10;94.00
42965;DHT22;28604;51.204;22.552;2022-11-10T14:21:24;11.10;94.00
42965;DHT22;28604;51.204;22.552;2022-11-10T14:27:43;11.20;94.00
42965;DHT22;28604;51.204;22.552;2022-11-10T14:30:30;11.10;94.00
42965;DHT22;28604;51.204;22.552;2022-11-10T14:33:16;11.10;94.00
42965;DHT22;28604;51.204;22.552;2022-11-10T14:36:04;11.10;94.00
42965;DHT22;28604;51.204;22.552;2022-11-10T14:38:50;11.10;93.90
42965;DHT22;28604;51.204;22.552;2022-11-10T14:41:35;11.10;93.80
42965;DHT22;28604;51.204;22.552;2022-11-10T14:44:23;11.00;93.70
42965;DHT22;28604;51.204;22.552;2022-11-10T14:47:28;11.10;93.80
42965;DHT22;28604;51.204;22.552;2022-11-10T14:53:07;11.00;93.50
42965;DHT22;28604;51.204;22.552;2022-11-10T14:55:55;10.90;93.50
42965;DHT22;28604;51.204;22.552;2022-11-10T14:58:42;10.90;93.60
42965;DHT22;28604;51.204;22.552;2022-11-10T15:01:34;10.90;93.70
42965;DHT22;28604;51.204;22.552;2022-11-10T15:04:27;10.80;93.60
42965;DHT22;28604;51.204;22.552;2022-11-10T15:07:12;10.80;93.50
42965;DHT22;28604;51.204;22.552;2022-11-10T15:10:09;10.80;93.60
42965;DHT22;28604;51.204;22.552;2022-11-10T15:19:31;10.70;93.50
42965;DHT22;28604;51.204;22.552;2022-11-10T15:22:29;10.70;93.60
42965;DHT22;28604;51.204;22.552;2022-11-10T15:25:19;10.70;93.80
42965;DHT22;28604;51.204;22.552;2022-11-10T15:31:11;10.60;93.70
42965;DHT22;28604;51.204;22.552;2022-11-10T15:34:03;10.60;93.90
42965;DHT22;28604;51.204;22.552;2022-11-10T15:36:47;10.50;93.80
42965;DHT22;28604;51.204;22.552;2022-11-10T15:39:32;10.60;93.90
42965;DHT22;28604;51.204;22.552;2022-11-10T15:42:20;10.60;93.70
42965;DHT22;28604;51.204;22.552;2022-11-10T15:45:05;10.50;94.00
42965;DHT22;28604;51.204;22.552;2022-11-10T15:47:49;10.50;93.70
42965;DHT22;28604;51.204;22.552;2022-11-10T15:50:35;10.50;94.00
42965;DHT22;28604;51.204;22.552;2022-11-10T15:53:38;10.40;93.90
42965;DHT22;28604;51.204;22.552;2022-11-10T15:56:24;10.40;93.60
42965;DHT22;28604;51.204;22.552;2022-11-10T15:59:09;10.40;93.80
42965;DHT22;28604;51.204;22.552;2022-11-10T16:01:54;10.40;94.00
42965;DHT22;28604;51.204;22.552;2022-11-10T16:04:39;10.40;93.80
42965;DHT22;28604;51.204;22.552;2022-11-10T16:07:23;10.40;93.90
42965;DHT22;28604;51.204;22.552;2022-11-10T16:10:07;10.30;94.10
42965;DHT22;28604;51.204;22.552;2022-11-10T16:12:52;10.30;94.10
42965;DHT22;28604;51.204;22.552;2022-11-10T16:15:38;10.30;94.10
42965;DHT22;28604;51.204;22.552;2022-11-10T16:18:25;10.30;94.20
42965;DHT22;28604;51.204;22.552;2022-11-10T16:21:23;10.30;94.20
42965;DHT22;28604;51.204;22.552;2022-11-10T16:24:08;10.30;94.20
42965;DHT22;28604;51.204;22.552;2022-11-10T16:26:52;10.30;94.20
42965;DHT22;28604;51.204;22.552;2022-11-10T16:29:37;10.30;94.30
42965;DHT22;28604;51.204;22.552;2022-11-10T16:32:22;10.30;94.30
42965;DHT22;28604;51.204;22.552;2022-11-10T16:35:13;10.30;94.40
42965;DHT22;28604;51.204;22.552;2022-11-10T16:37:58;10.30;94.50
42965;DHT22;28604;51.204;22.552;2022-11-10T16:40:43;10.30;94.40
42965;DHT22;28604;51.204;22.552;2022-11-10T16:43:29;10.30;94.50
42965;DHT22;28604;51.204;22.552;2022-11-10T16:46:28;10.30;94.50
42965;DHT22;28604;51.204;22.552;2022-11-10T16:49:33;10.40;94.30
42965;DHT22;28604;51.204;22.552;2022-11-10T16:52:18;10.40;94.40
42965;DHT22;28604;51.204;22.552;2022-11-10T16:55:04;10.40;94.30
42965;DHT22;28604;51.204;22.552;2022-11-10T16:57:49;10.40;94.30
42965;DHT22;28604;51.204;22.552;2022-11-10T17:00:34;10.40;94.40
42965;DHT22;28604;51.204;22.552;2022-11-10T17:03:30;10.40;94.40
42965;DHT22;28604;51.204;22.552;2022-11-10T17:06:16;10.30;94.60
42965;DHT22;28604;51.204;22.552;2022-11-10T17:09:11;10.40;94.50
42965;DHT22;28604;51.204;22.552;2022-11-10T17:11:56;10.40;94.30
42965;DHT22;28604;51.204;22.552;2022-11-10T17:14:41;10.40;94.20
42965;DHT22;28604;51.204;22.552;2022-11-10T17:17:25;10.40;94.40
42965;DHT22;28604;51.204;22.552;2022-11-10T17:23:02;10.40;94.40
42965;DHT22;28604;51.204;22.552;2022-11-10T17:25:48;10.40;94.50
42965;DHT22;28604;51.204;22.552;2022-11-10T17:28:33;10.40;94.40
42965;DHT22;28604;51.204;22.552;2022-11-10T17:31:18;10.30;94.60
42965;DHT22;28604;51.204;22.552;2022-11-10T17:34:02;10.40;94.40
42965;DHT22;28604;51.204;22.552;2022-11-10T17:36:51;10.40;94.30
42965;DHT22;28604;51.204;22.552;2022-11-10T17:39:35;10.40;94.40
42965;DHT22;28604;51.204;22.552;2022-11-10T17:42:20;10.40;94.30
42965;DHT22;28604;51.204;22.552;2022-11-10T17:45:04;10.40;94.50
42965;DHT22;28604;51.204;22.552;2022-11-10T17:47:49;10.40;94.40
42965;DHT22;28604;51.204;22.552;2022-11-10T17:50:35;10.40;94.30
42965;DHT22;28604;51.204;22.552;2022-11-10T17:53:22;10.40;94.40
42965;DHT22;28604;51.204;22.552;2022-11-10T17:56:08;10.40;94.50
42965;DHT22;28604;51.204;22.552;2022-11-10T17:58:52;10.40;94.30
42965;DHT22;28604;51.204;22.552;2022-11-10T18:01:36;10.40;94.50
42965;DHT22;28604;51.204;22.552;2022-11-10T18:04:21;10.40;94.20
42965;DHT22;28604;51.204;22.552;2022-11-10T18:07:05;10.40;94.20
42965;DHT22;28604;51.204;22.552;2022-11-10T18:09:50;10.40;94.30
42965;DHT22;28604;51.204;22.552;2022-11-10T18:12:34;10.40;94.40
42965;DHT22;28604;51.204;22.552;2022-11-10T18:15:19;10.40;94.50
42965;DHT22;28604;51.204;22.552;2022-11-10T18:18:03;10.40;94.30
42965;DHT22;28604;51.204;22.552;2022-11-10T18:20:48;10.40;94.30
42965;DHT22;28604;51.204;22.552;2022-11-10T18:23:32;10.40;94.40
42965;DHT22;28604;51.204;22.552;2022-11-10T18:26:17;10.40;94.30
42965;DHT22;28604;51.204;22.552;2022-11-10T18:29:01;10.40;94.40
42965;DHT22;28604;51.204;22.552;2022-11-10T18:31:45;10.40;94.30
42965;DHT22;28604;51.204;22.552;2022-11-10T18:34:30;10.40;94.30
42965;DHT22;28604;51.204;22.552;2022-11-10T18:37:15;10.40;94.40
42965;DHT22;28604;51.204;22.552;2022-11-10T18:40:00;10.30;94.40
42965;DHT22;28604;51.204;22.552;2022-11-10T18:42:45;10.30;94.30
42965;DHT22;28604;51.204;22.552;2022-11-10T18:45:29;10.30;94.30
42965;DHT22;28604;51.204;22.552;2022-11-10T18:48:13;10.30;94.40
42965;DHT22;28604;51.204;22.552;2022-11-10T18:50:58;10.30;94.10
42965;DHT22;28604;51.204;22.552;2022-11-10T18:53:42;10.20;94.10
42965;DHT22;28604;51.204;22.552;2022-11-10T18:56:27;10.20;94.00
42965;DHT22;28604;51.204;22.552;2022-11-10T18:59:12;10.20;94.10
42965;DHT22;28604;51.204;22.552;2022-11-10T19:01:58;10.20;94.00
42965;DHT22;28604;51.204;22.552;2022-11-10T19:04:43;10.20;94.10
42965;DHT22;28604;51.204;22.552;2022-11-10T19:07:29;10.20;93.70
42965;DHT22;28604;51.204;22.552;2022-11-10T19:10:14;10.10;94.00
42965;DHT22;28604;51.204;22.552;2022-11-10T19:12:59;10.20;93.80
42965;DHT22;28604;51.204;22.552;2022-11-10T19:15:44;10.10;94.10
42965;DHT22;28604;51.204;22.552;2022-11-10T19:18:38;10.10;94.00
42965;DHT22;28604;51.204;22.552;2022-11-10T19:21:24;10.10;93.90
42965;DHT22;28604;51.204;22.552;2022-11-10T19:24:12;10.00;93.90